sensor_id;sensor_type;location;lat;lon;timestamp;P1;durP1;ratioP1;P2;durP2;ratioP2
6043;SDS011;3050;42.660;23.276;2023-08-17T00:00:17;2.25;;;2.10;;
6043;SDS011;3050;42.660;23.276;2023-08-17T00:02:47;3.22;;;3.03;;
6043;SDS011;3050;42.660;23.276;2023-08-17T00:05:15;4.70;;;2.72;;
6043;SDS011;3050;42.660;23.276;2023-08-17T00:07:47;3.38;;;2.63;;
6043;SDS011;3050;42.660;23.276;2023-08-17T00:10:16;2.78;;;2.60;;
6043;SDS011;3050;42.660;23.276;2023-08-17T00:12:53;4.50;;;3.60;;
6043;SDS011;3050;42.660;23.276;2023-08-17T00:15:34;3.00;;;2.80;;
6043;SDS011;3050;42.660;23.276;2023-08-17T00:18:11;3.75;;;2.63;;
6043;SDS011;3050;42.660;23.276;2023-08-17T00:20:42;2.90;;;2.70;;
6043;SDS011;3050;42.660;23.276;2023-08-17T00:23:12;7.80;;;3.25;;
6043;SDS011;3050;42.660;23.276;2023-08-17T00:25:40;2.70;;;2.50;;
6043;SDS011;3050;42.660;23.276;2023-08-17T00:28:09;4.13;;;3.20;;
6043;SDS011;3050;42.660;23.276;2023-08-17T00:30:41;3.03;;;2.58;;
6043;SDS011;3050;42.660;23.276;2023-08-17T00:33:09;3.22;;;3.03;;
6043;SDS011;3050;42.660;23.276;2023-08-17T00:35:38;4.22;;;2.92;;
6043;SDS011;3050;42.660;23.276;2023-08-17T00:38:06;4.30;;;3.10;;
6043;SDS011;3050;42.660;23.276;2023-08-17T00:40:40;5.88;;;3.08;;
6043;SDS011;3050;42.660;23.276;2023-08-17T00:43:10;2.58;;;2.38;;
6043;SDS011;3050;42.660;23.276;2023-08-17T00:45:42;2.33;;;2.22;;
6043;SDS011;3050;42.660;23.276;2023-08-17T00:48:12;2.53;;;2.33;;
6043;SDS011;3050;42.660;23.276;2023-08-17T00:50:41;2.72;;;2.53;;
6043;SDS011;3050;42.660;23.276;2023-08-17T00:53:09;2.55;;;2.42;;
6043;SDS011;3050;42.660;23.276;2023-08-17T00:55:44;4.75;;;2.38;;
6043;SDS011;3050;42.660;23.276;2023-08-17T00:58:13;2.00;;;1.90;;
6043;SDS011;3050;42.660;23.276;2023-08-17T01:03:14;1.98;;;1.88;;
6043;SDS011;3050;42.660;23.276;2023-08-17T01:05:43;2.53;;;2.40;;
6043;SDS011;3050;42.660;23.276;2023-08-17T01:08:13;2.15;;;1.92;;
6043;SDS011;3050;42.660;23.276;2023-08-17T01:10:44;2.25;;;2.15;;
6043;SDS011;3050;42.660;23.276;2023-08-17T01:13:18;2.05;;;1.95;;
6043;SDS011;3050;42.660;23.276;2023-08-17T01:15:51;2.67;;;2.40;;
6043;SDS011;3050;42.660;23.276;2023-08-17T01:18:26;1.45;;;1.40;;
6043;SDS011;3050;42.660;23.276;2023-08-17T01:20:57;1.77;;;1.67;;
6043;SDS011;3050;42.660;23.276;2023-08-17T01:23:30;1.42;;;1.40;;
6043;SDS011;3050;42.660;23.276;2023-08-17T01:26:00;2.33;;;1.60;;
6043;SDS011;3050;42.660;23.276;2023-08-17T01:28:28;1.55;;;1.45;;
6043;SDS011;3050;42.660;23.276;2023-08-17T01:30:58;4.00;;;1.92;;
6043;SDS011;3050;42.660;23.276;2023-08-17T01:33:31;1.50;;;1.40;;
6043;SDS011;3050;42.660;23.276;2023-08-17T01:36:06;1.10;;;1.10;;
6043;SDS011;3050;42.660;23.276;2023-08-17T01:38:43;1.52;;;1.42;;
6043;SDS011;3050;42.660;23.276;2023-08-17T01:41:14;1.85;;;1.80;;
6043;SDS011;3050;42.660;23.276;2023-08-17T01:43:44;1.63;;;1.50;;
6043;SDS011;3050;42.660;23.276;2023-08-17T01:46:14;1.40;;;1.40;;
6043;SDS011;3050;42.660;23.276;2023-08-17T01:48:43;2.05;;;1.42;;
6043;SDS011;3050;42.660;23.276;2023-08-17T01:51:13;1.40;;;1.40;;
6043;SDS011;3050;42.660;23.276;2023-08-17T01:53:47;3.15;;;1.58;;
6043;SDS011;3050;42.660;23.276;2023-08-17T01:56:15;2.30;;;1.92;;
6043;SDS011;3050;42.660;23.276;2023-08-17T01:58:46;1.52;;;1.42;;
6043;SDS011;3050;42.660;23.276;2023-08-17T02:01:18;5.60;;;1.70;;
6043;SDS011;3050;42.660;23.276;2023-08-17T02:03:49;1.60;;;1.50;;
6043;SDS011;3050;42.660;23.276;2023-08-17T02:06:19;1.35;;;1.33;;
6043;SDS011;3050;42.660;23.276;2023-08-17T02:08:49;2.63;;;1.58;;
6043;SDS011;3050;42.660;23.276;2023-08-17T02:11:18;3.10;;;1.48;;
6043;SDS011;3050;42.660;23.276;2023-08-17T02:13:49;11.43;;;1.33;;
6043;SDS011;3050;42.660;23.276;2023-08-17T02:16:20;5.80;;;1.67;;
6043;SDS011;3050;42.660;23.276;2023-08-17T02:18:57;1.98;;;1.65;;
6043;SDS011;3050;42.660;23.276;2023-08-17T02:21:27;1.60;;;1.50;;
6043;SDS011;3050;42.660;23.276;2023-08-17T02:23:58;1.50;;;1.40;;
6043;SDS011;3050;42.660;23.276;2023-08-17T02:26:29;4.43;;;1.92;;
6043;SDS011;3050;42.660;23.276;2023-08-17T02:28:58;2.00;;;1.90;;
6043;SDS011;3050;42.660;23.276;2023-08-17T02:31:25;1.88;;;1.77;;
6043;SDS011;3050;42.660;23.276;2023-08-17T02:33:56;2.92;;;1.77;;
6043;SDS011;3050;42.660;23.276;2023-08-17T02:36:31;1.95;;;1.85;;
6043;SDS011;3050;42.660;23.276;2023-08-17T02:39:04;1.50;;;1.40;;
6043;SDS011;3050;42.660;23.276;2023-08-17T02:41:32;1.50;;;1.45;;
6043;SDS011;3050;42.660;23.276;2023-08-17T02:44:02;6.53;;;1.90;;
6043;SDS011;3050;42.660;23.276;2023-08-17T02:46:30;1.98;;;1.88;;
6043;SDS011;3050;42.660;23.276;2023-08-17T02:49:03;1.48;;;1.38;;
6043;SDS011;3050;42.660;23.276;2023-08-17T02:51:32;1.60;;;1.50;;
6043;SDS011;3050;42.660;23.276;2023-08-17T02:54:04;1.70;;;1.60;;
6043;SDS011;3050;42.660;23.276;2023-08-17T02:56:32;3.17;;;1.83;;
6043;SDS011;3050;42.660;23.276;2023-08-17T02:59:01;3.38;;;1.73;;
6043;SDS011;3050;42.660;23.276;2023-08-17T03:01:30;1.50;;;1.40;;
6043;SDS011;3050;42.660;23.276;2023-08-17T03:04:00;3.35;;;1.58;;
6043;SDS011;3050;42.660;23.276;2023-08-17T03:06:30;2.33;;;2.20;;
6043;SDS011;3050;42.660;23.276;2023-08-17T03:08:59;1.48;;;1.40;;
6043;SDS011;3050;42.660;23.276;2023-08-17T03:11:29;1.55;;;1.48;;
6043;SDS011;3050;42.660;23.276;2023-08-17T03:13:58;2.00;;;1.90;;
6043;SDS011;3050;42.660;23.276;2023-08-17T03:16:28;1.42;;;1.33;;
6043;SDS011;3050;42.660;23.276;2023-08-17T03:18:57;1.30;;;1.23;;
6043;SDS011;3050;42.660;23.276;2023-08-17T03:21:26;1.73;;;1.63;;
6043;SDS011;3050;42.660;23.276;2023-08-17T03:23:56;1.35;;;1.30;;
6043;SDS011;3050;42.660;23.276;2023-08-17T03:26:28;2.03;;;1.55;;
6043;SDS011;3050;42.660;23.276;2023-08-17T03:28:56;5.05;;;1.60;;
6043;SDS011;3050;42.660;23.276;2023-08-17T03:31:26;1.80;;;1.70;;
6043;SDS011;3050;42.660;23.276;2023-08-17T03:33:55;1.73;;;1.70;;
6043;SDS011;3050;42.660;23.276;2023-08-17T03:36:24;1.70;;;1.60;;
6043;SDS011;3050;42.660;23.276;2023-08-17T03:38:52;1.60;;;1.50;;
6043;SDS011;3050;42.660;23.276;2023-08-17T03:41:23;2.67;;;2.00;;
6043;SDS011;3050;42.660;23.276;2023-08-17T03:43:54;1.95;;;1.85;;
6043;SDS011;3050;42.660;23.276;2023-08-17T03:46:23;1.63;;;1.60;;
6043;SDS011;3050;42.660;23.276;2023-08-17T03:48:53;1.90;;;1.80;;
6043;SDS011;3050;42.660;23.276;2023-08-17T03:51:26;3.80;;;1.90;;
6043;SDS011;3050;42.660;23.276;2023-08-17T03:53:54;2.28;;;1.55;;
6043;SDS011;3050;42.660;23.276;2023-08-17T03:56:26;1.65;;;1.65;;
6043;SDS011;3050;42.660;23.276;2023-08-17T03:59:01;1.58;;;1.48;;
6043;SDS011;3050;42.660;23.276;2023-08-17T04:01:29;1.92;;;1.83;;
6043;SDS011;3050;42.660;23.276;2023-08-17T04:04:01;1.75;;;1.65;;
6043;SDS011;3050;42.660;23.276;2023-08-17T04:06:32;1.75;;;1.65;;
6043;SDS011;3050;42.660;23.276;2023-08-17T04:09:02;1.23;;;1.23;;
6043;SDS011;3050;42.660;23.276;2023-08-17T04:11:33;1.17;;;1.17;;
6043;SDS011;3050;42.660;23.276;2023-08-17T04:14:04;10.00;;;1.50;;
6043;SDS011;3050;42.660;23.276;2023-08-17T04:16:35;1.15;;;1.15;;
6043;SDS011;3050;42.660;23.276;2023-08-17T04:19:05;3.22;;;1.08;;
6043;SDS011;3050;42.660;23.276;2023-08-17T04:21:38;2.38;;;1.35;;
6043;SDS011;3050;42.660;23.276;2023-08-17T04:24:07;1.50;;;1.23;;
6043;SDS011;3050;42.660;23.276;2023-08-17T04:26:37;1.10;;;1.10;;
6043;SDS011;3050;42.660;23.276;2023-08-17T04:29:09;1.50;;;1.40;;
6043;SDS011;3050;42.660;23.276;2023-08-17T04:31:37;1.33;;;1.33;;
6043;SDS011;3050;42.660;23.276;2023-08-17T04:34:10;2.03;;;1.70;;
6043;SDS011;3050;42.660;23.276;2023-08-17T04:36:39;2.90;;;1.60;;
6043;SDS011;3050;42.660;23.276;2023-08-17T04:39:11;2.30;;;2.17;;
6043;SDS011;3050;42.660;23.276;2023-08-17T04:41:42;2.42;;;2.03;;
6043;SDS011;3050;42.660;23.276;2023-08-17T04:44:13;2.03;;;1.92;;
6043;SDS011;3050;42.660;23.276;2023-08-17T04:46:41;2.03;;;1.90;;
6043;SDS011;3050;42.660;23.276;2023-08-17T04:49:14;2.42;;;2.05;;
6043;SDS011;3050;42.660;23.276;2023-08-17T04:51:44;2.95;;;2.60;;
6043;SDS011;3050;42.660;23.276;2023-08-17T04:54:13;2.10;;;1.95;;
6043;SDS011;3050;42.660;23.276;2023-08-17T04:56:41;3.28;;;2.08;;
6043;SDS011;3050;42.660;23.276;2023-08-17T04:59:13;1.80;;;1.80;;
6043;SDS011;3050;42.660;23.276;2023-08-17T05:01:41;2.25;;;2.05;;
6043;SDS011;3050;42.660;23.276;2023-08-17T05:04:12;2.20;;;2.10;;
6043;SDS011;3050;42.660;23.276;2023-08-17T05:06:40;2.92;;;2.00;;
6043;SDS011;3050;42.660;23.276;2023-08-17T05:09:10;4.72;;;2.35;;
6043;SDS011;3050;42.660;23.276;2023-08-17T05:11:41;2.42;;;2.28;;
6043;SDS011;3050;42.660;23.276;2023-08-17T05:14:15;3.95;;;2.15;;
6043;SDS011;3050;42.660;23.276;2023-08-17T05:16:45;2.40;;;2.30;;
6043;SDS011;3050;42.660;23.276;2023-08-17T05:19:15;2.92;;;2.67;;
6043;SDS011;3050;42.660;23.276;2023-08-17T05:21:47;6.45;;;2.67;;
6043;SDS011;3050;42.660;23.276;2023-08-17T05:24:18;2.53;;;2.28;;
6043;SDS011;3050;42.660;23.276;2023-08-17T05:26:50;3.45;;;3.25;;
6043;SDS011;3050;42.660;23.276;2023-08-17T05:29:21;2.75;;;2.55;;
6043;SDS011;3050;42.660;23.276;2023-08-17T05:31:50;3.72;;;2.28;;
6043;SDS011;3050;42.660;23.276;2023-08-17T05:34:20;2.85;;;2.65;;
6043;SDS011;3050;42.660;23.276;2023-08-17T05:36:50;3.97;;;2.80;;
6043;SDS011;3050;42.660;23.276;2023-08-17T05:39:28;2.45;;;2.35;;
6043;SDS011;3050;42.660;23.276;2023-08-17T05:41:58;3.10;;;2.60;;
6043;SDS011;3050;42.660;23.276;2023-08-17T05:44:31;2.60;;;2.35;;
6043;SDS011;3050;42.660;23.276;2023-08-17T05:47:00;3.90;;;3.60;;
6043;SDS011;3050;42.660;23.276;2023-08-17T05:49:34;3.28;;;2.92;;
6043;SDS011;3050;42.660;23.276;2023-08-17T05:52:06;2.90;;;2.65;;
6043;SDS011;3050;42.660;23.276;2023-08-17T05:54:35;2.88;;;2.67;;
6043;SDS011;3050;42.660;23.276;2023-08-17T05:57:04;4.50;;;4.20;;
6043;SDS011;3050;42.660;23.276;2023-08-17T05:59:37;4.18;;;2.60;;
6043;SDS011;3050;42.660;23.276;2023-08-17T06:02:06;2.33;;;2.05;;
6043;SDS011;3050;42.660;23.276;2023-08-17T06:04:36;2.22;;;2.10;;
6043;SDS011;3050;42.660;23.276;2023-08-17T06:07:09;2.22;;;2.13;;
6043;SDS011;3050;42.660;23.276;2023-08-17T06:09:38;2.95;;;2.35;;
6043;SDS011;3050;42.660;23.276;2023-08-17T06:12:08;4.65;;;4.25;;
6043;SDS011;3050;42.660;23.276;2023-08-17T06:14:38;2.88;;;2.67;;
6043;SDS011;3050;42.660;23.276;2023-08-17T06:17:08;6.35;;;2.28;;
6043;SDS011;3050;42.660;23.276;2023-08-17T06:19:37;2.00;;;1.90;;
6043;SDS011;3050;42.660;23.276;2023-08-17T06:22:08;2.30;;;2.20;;
6043;SDS011;3050;42.660;23.276;2023-08-17T06:24:42;2.15;;;2.00;;
6043;SDS011;3050;42.660;23.276;2023-08-17T06:27:11;1.83;;;1.73;;
6043;SDS011;3050;42.660;23.276;2023-08-17T06:29:41;1.70;;;1.60;;
6043;SDS011;3050;42.660;23.276;2023-08-17T06:32:10;3.65;;;2.30;;
6043;SDS011;3050;42.660;23.276;2023-08-17T06:34:40;3.88;;;2.42;;
6043;SDS011;3050;42.660;23.276;2023-08-17T06:37:09;3.63;;;1.98;;
6043;SDS011;3050;42.660;23.276;2023-08-17T06:39:40;2.15;;;1.60;;
6043;SDS011;3050;42.660;23.276;2023-08-17T06:42:16;4.57;;;2.33;;
6043;SDS011;3050;42.660;23.276;2023-08-17T06:45:06;1.80;;;1.70;;
6043;SDS011;3050;42.660;23.276;2023-08-17T06:47:45;1.58;;;1.50;;
6043;SDS011;3050;42.660;23.276;2023-08-17T06:50:17;1.65;;;1.52;;
6043;SDS011;3050;42.660;23.276;2023-08-17T06:52:48;4.15;;;1.98;;
6043;SDS011;3050;42.660;23.276;2023-08-17T06:55:19;2.30;;;2.10;;
6043;SDS011;3050;42.660;23.276;2023-08-17T06:57:47;2.80;;;1.85;;
6043;SDS011;3050;42.660;23.276;2023-08-17T07:00:20;1.92;;;1.80;;
6043;SDS011;3050;42.660;23.276;2023-08-17T07:02:58;5.30;;;2.25;;
6043;SDS011;3050;42.660;23.276;2023-08-17T07:05:27;2.55;;;2.35;;
6043;SDS011;3050;42.660;23.276;2023-08-17T07:07:56;1.75;;;1.65;;
6043;SDS011;3050;42.660;23.276;2023-08-17T07:10:26;1.73;;;1.63;;
6043;SDS011;3050;42.660;23.276;2023-08-17T07:12:56;2.08;;;1.98;;
6043;SDS011;3050;42.660;23.276;2023-08-17T07:15:31;1.92;;;1.92;;
6043;SDS011;3050;42.660;23.276;2023-08-17T07:18:00;2.22;;;1.98;;
6043;SDS011;3050;42.660;23.276;2023-08-17T07:20:29;2.47;;;2.28;;
6043;SDS011;3050;42.660;23.276;2023-08-17T07:22:58;2.20;;;2.10;;
6043;SDS011;3050;42.660;23.276;2023-08-17T07:25:30;1.95;;;1.95;;
6043;SDS011;3050;42.660;23.276;2023-08-17T07:28:01;1.95;;;1.85;;
6043;SDS011;3050;42.660;23.276;2023-08-17T07:30:34;2.20;;;2.10;;
6043;SDS011;3050;42.660;23.276;2023-08-17T07:33:02;1.95;;;1.88;;
6043;SDS011;3050;42.660;23.276;2023-08-17T07:35:34;1.30;;;1.30;;
6043;SDS011;3050;42.660;23.276;2023-08-17T07:38:04;1.73;;;1.50;;
6043;SDS011;3050;42.660;23.276;2023-08-17T07:40:32;3.13;;;2.10;;
6043;SDS011;3050;42.660;23.276;2023-08-17T07:43:01;1.80;;;1.70;;
6043;SDS011;3050;42.660;23.276;2023-08-17T07:45:30;1.60;;;1.60;;
6043;SDS011;3050;42.660;23.276;2023-08-17T07:48:02;2.90;;;1.45;;
6043;SDS011;3050;42.660;23.276;2023-08-17T07:50:30;3.15;;;2.00;;
6043;SDS011;3050;42.660;23.276;2023-08-17T07:53:00;1.67;;;1.63;;
6043;SDS011;3050;42.660;23.276;2023-08-17T07:55:29;1.92;;;1.83;;
6043;SDS011;3050;42.660;23.276;2023-08-17T07:57:58;7.38;;;1.85;;
6043;SDS011;3050;42.660;23.276;2023-08-17T08:00:28;1.48;;;1.38;;
6043;SDS011;3050;42.660;23.276;2023-08-17T08:02:57;1.90;;;1.80;;
6043;SDS011;3050;42.660;23.276;2023-08-17T08:05:30;1.25;;;1.20;;
6043;SDS011;3050;42.660;23.276;2023-08-17T08:07:59;1.67;;;1.67;;
6043;SDS011;3050;42.660;23.276;2023-08-17T08:10:31;1.88;;;1.77;;
6043;SDS011;3050;42.660;23.276;2023-08-17T08:13:02;1.92;;;1.83;;
6043;SDS011;3050;42.660;23.276;2023-08-17T08:15:32;1.95;;;1.85;;
6043;SDS011;3050;42.660;23.276;2023-08-17T08:18:02;2.80;;;2.15;;
6043;SDS011;3050;42.660;23.276;2023-08-17T08:20:33;1.75;;;1.70;;
6043;SDS011;3050;42.660;23.276;2023-08-17T08:23:04;1.85;;;1.75;;
6043;SDS011;3050;42.660;23.276;2023-08-17T08:25:46;1.88;;;1.77;;
6043;SDS011;3050;42.660;23.276;2023-08-17T08:28:14;2.05;;;1.95;;
6043;SDS011;3050;42.660;23.276;2023-08-17T08:30:51;1.70;;;1.60;;
6043;SDS011;3050;42.660;23.276;2023-08-17T08:33:20;2.17;;;2.08;;
6043;SDS011;3050;42.660;23.276;2023-08-17T08:35:57;1.80;;;1.70;;
6043;SDS011;3050;42.660;23.276;2023-08-17T08:38:45;4.60;;;1.70;;
6043;SDS011;3050;42.660;23.276;2023-08-17T08:41:39;1.98;;;1.88;;
6043;SDS011;3050;42.660;23.276;2023-08-17T08:44:11;1.63;;;1.52;;
6043;SDS011;3050;42.660;23.276;2023-08-17T08:46:43;2.22;;;2.13;;
6043;SDS011;3050;42.660;23.276;2023-08-17T08:49:12;2.00;;;1.90;;
6043;SDS011;3050;42.660;23.276;2023-08-17T08:51:45;2.30;;;2.13;;
6043;SDS011;3050;42.660;23.276;2023-08-17T08:54:14;2.25;;;2.03;;
6043;SDS011;3050;42.660;23.276;2023-08-17T08:56:45;4.00;;;2.00;;
6043;SDS011;3050;42.660;23.276;2023-08-17T08:59:15;1.60;;;1.60;;
6043;SDS011;3050;42.660;23.276;2023-08-17T09:01:46;2.00;;;1.90;;
6043;SDS011;3050;42.660;23.276;2023-08-17T09:04:14;1.98;;;1.88;;
6043;SDS011;3050;42.660;23.276;2023-08-17T09:06:47;2.15;;;2.05;;
6043;SDS011;3050;42.660;23.276;2023-08-17T09:09:18;2.15;;;2.05;;
6043;SDS011;3050;42.660;23.276;2023-08-17T09:11:47;2.00;;;1.80;;
6043;SDS011;3050;42.660;23.276;2023-08-17T09:14:15;1.90;;;1.80;;
6043;SDS011;3050;42.660;23.276;2023-08-17T09:16:45;3.17;;;2.22;;
6043;SDS011;3050;42.660;23.276;2023-08-17T09:19:13;1.77;;;1.77;;
6043;SDS011;3050;42.660;23.276;2023-08-17T09:21:47;1.92;;;1.83;;
6043;SDS011;3050;42.660;23.276;2023-08-17T09:24:20;1.88;;;1.45;;
6043;SDS011;3050;42.660;23.276;2023-08-17T09:26:49;1.73;;;1.63;;
6043;SDS011;3050;42.660;23.276;2023-08-17T09:29:18;3.85;;;1.80;;
6043;SDS011;3050;42.660;23.276;2023-08-17T09:31:55;1.73;;;1.70;;
6043;SDS011;3050;42.660;23.276;2023-08-17T09:34:29;2.10;;;1.90;;
6043;SDS011;3050;42.660;23.276;2023-08-17T09:37:06;1.63;;;1.52;;
6043;SDS011;3050;42.660;23.276;2023-08-17T09:39:38;1.73;;;1.63;;
6043;SDS011;3050;42.660;23.276;2023-08-17T09:42:10;2.00;;;1.90;;
6043;SDS011;3050;42.660;23.276;2023-08-17T09:44:39;1.88;;;1.80;;
6043;SDS011;3050;42.660;23.276;2023-08-17T09:47:11;1.30;;;1.30;;
6043;SDS011;3050;42.660;23.276;2023-08-17T09:49:44;1.80;;;1.70;;
6043;SDS011;3050;42.660;23.276;2023-08-17T09:52:17;1.30;;;1.30;;
6043;SDS011;3050;42.660;23.276;2023-08-17T09:54:47;3.88;;;1.70;;
6043;SDS011;3050;42.660;23.276;2023-08-17T09:57:18;4.32;;;1.55;;
6043;SDS011;3050;42.660;23.276;2023-08-17T09:59:47;1.55;;;1.55;;
6043;SDS011;3050;42.660;23.276;2023-08-17T10:02:22;1.85;;;1.42;;
6043;SDS011;3050;42.660;23.276;2023-08-17T10:04:51;1.45;;;1.42;;
6043;SDS011;3050;42.660;23.276;2023-08-17T10:07:23;1.40;;;1.40;;
6043;SDS011;3050;42.660;23.276;2023-08-17T10:09:53;1.55;;;1.45;;
6043;SDS011;3050;42.660;23.276;2023-08-17T10:12:25;1.23;;;1.23;;
6043;SDS011;3050;42.660;23.276;2023-08-17T10:14:55;1.20;;;1.20;;
6043;SDS011;3050;42.660;23.276;2023-08-17T10:17:25;1.30;;;1.30;;
6043;SDS011;3050;42.660;23.276;2023-08-17T10:19:54;1.27;;;1.17;;
6043;SDS011;3050;42.660;23.276;2023-08-17T10:22:26;4.13;;;1.52;;
6043;SDS011;3050;42.660;23.276;2023-08-17T10:24:55;1.20;;;1.20;;
6043;SDS011;3050;42.660;23.276;2023-08-17T10:27:23;2.50;;;1.13;;
6043;SDS011;3050;42.660;23.276;2023-08-17T10:29:53;3.15;;;1.45;;
6043;SDS011;3050;42.660;23.276;2023-08-17T10:32:21;1.42;;;1.13;;
6043;SDS011;3050;42.660;23.276;2023-08-17T10:34:49;1.17;;;1.17;;
6043;SDS011;3050;42.660;23.276;2023-08-17T10:37:18;1.30;;;1.20;;
6043;SDS011;3050;42.660;23.276;2023-08-17T10:39:51;1.45;;;1.35;;
6043;SDS011;3050;42.660;23.276;2023-08-17T10:42:29;1.23;;;1.13;;
6043;SDS011;3050;42.660;23.276;2023-08-17T10:44:57;1.63;;;1.60;;
6043;SDS011;3050;42.660;23.276;2023-08-17T10:47:28;1.27;;;1.23;;
6043;SDS011;3050;42.660;23.276;2023-08-17T10:49:56;4.63;;;1.67;;
6043;SDS011;3050;42.660;23.276;2023-08-17T10:52:26;3.70;;;1.27;;
6043;SDS011;3050;42.660;23.276;2023-08-17T10:54:58;1.30;;;1.30;;
6043;SDS011;3050;42.660;23.276;2023-08-17T10:57:30;1.80;;;1.27;;
6043;SDS011;3050;42.660;23.276;2023-08-17T11:00:07;1.27;;;1.27;;
6043;SDS011;3050;42.660;23.276;2023-08-17T11:02:37;1.30;;;1.20;;
6043;SDS011;3050;42.660;23.276;2023-08-17T11:05:08;2.55;;;1.40;;
6043;SDS011;3050;42.660;23.276;2023-08-17T11:07:41;1.40;;;1.40;;
6043;SDS011;3050;42.660;23.276;2023-08-17T11:10:40;1.98;;;1.20;;
6043;SDS011;3050;42.660;23.276;2023-08-17T11:13:09;1.23;;;1.10;;
6043;SDS011;3050;42.660;23.276;2023-08-17T11:15:38;1.15;;;1.15;;
6043;SDS011;3050;42.660;23.276;2023-08-17T11:18:11;0.98;;;0.98;;
6043;SDS011;3050;42.660;23.276;2023-08-17T11:20:40;5.75;;;1.23;;
6043;SDS011;3050;42.660;23.276;2023-08-17T11:23:09;1.67;;;1.58;;
6043;SDS011;3050;42.660;23.276;2023-08-17T11:25:38;1.40;;;1.40;;
6043;SDS011;3050;42.660;23.276;2023-08-17T11:28:08;2.45;;;1.63;;
6043;SDS011;3050;42.660;23.276;2023-08-17T11:30:37;1.38;;;1.27;;
6043;SDS011;3050;42.660;23.276;2023-08-17T11:33:05;1.42;;;1.38;;
6043;SDS011;3050;42.660;23.276;2023-08-17T11:35:34;1.27;;;1.27;;
6043;SDS011;3050;42.660;23.276;2023-08-17T11:38:05;4.30;;;1.77;;
6043;SDS011;3050;42.660;23.276;2023-08-17T11:40:34;1.67;;;1.58;;
6043;SDS011;3050;42.660;23.276;2023-08-17T11:43:05;1.75;;;1.60;;
6043;SDS011;3050;42.660;23.276;2023-08-17T11:45:34;1.50;;;1.50;;
6043;SDS011;3050;42.660;23.276;2023-08-17T11:48:03;2.45;;;2.25;;
6043;SDS011;3050;42.660;23.276;2023-08-17T11:50:32;2.08;;;1.98;;
6043;SDS011;3050;42.660;23.276;2023-08-17T11:52:59;1.40;;;1.40;;
6043;SDS011;3050;42.660;23.276;2023-08-17T11:55:30;1.45;;;1.38;;
6043;SDS011;3050;42.660;23.276;2023-08-17T11:57:58;1.38;;;1.38;;
6043;SDS011;3050;42.660;23.276;2023-08-17T12:00:33;1.58;;;1.48;;
6043;SDS011;3050;42.660;23.276;2023-08-17T12:03:01;1.65;;;1.55;;
6043;SDS011;3050;42.660;23.276;2023-08-17T12:05:30;1.75;;;1.65;;
6043;SDS011;3050;42.660;23.276;2023-08-17T12:08:01;1.98;;;1.88;;
6043;SDS011;3050;42.660;23.276;2023-08-17T12:10:29;1.80;;;1.70;;
6043;SDS011;3050;42.660;23.276;2023-08-17T12:12:57;1.85;;;1.75;;
6043;SDS011;3050;42.660;23.276;2023-08-17T12:15:31;1.98;;;1.80;;
6043;SDS011;3050;42.660;23.276;2023-08-17T12:17:58;3.67;;;1.80;;
6043;SDS011;3050;42.660;23.276;2023-08-17T12:20:27;1.83;;;1.73;;
6043;SDS011;3050;42.660;23.276;2023-08-17T12:22:56;1.65;;;1.55;;
6043;SDS011;3050;42.660;23.276;2023-08-17T12:25:24;2.40;;;1.58;;
6043;SDS011;3050;42.660;23.276;2023-08-17T12:27:52;5.10;;;2.13;;
6043;SDS011;3050;42.660;23.276;2023-08-17T12:30:29;2.45;;;2.25;;
6043;SDS011;3050;42.660;23.276;2023-08-17T12:32:57;1.83;;;1.70;;
6043;SDS011;3050;42.660;23.276;2023-08-17T12:35:24;2.08;;;1.98;;
6043;SDS011;3050;42.660;23.276;2023-08-17T12:37:51;1.92;;;1.92;;
6043;SDS011;3050;42.660;23.276;2023-08-17T12:40:20;1.83;;;1.80;;
6043;SDS011;3050;42.660;23.276;2023-08-17T12:42:49;4.13;;;2.00;;
6043;SDS011;3050;42.660;23.276;2023-08-17T12:45:19;1.50;;;1.50;;
6043;SDS011;3050;42.660;23.276;2023-08-17T12:47:54;2.53;;;2.22;;
6043;SDS011;3050;42.660;23.276;2023-08-17T12:50:51;1.60;;;1.60;;
6043;SDS011;3050;42.660;23.276;2023-08-17T12:56:25;2.30;;;2.20;;
6043;SDS011;3050;42.660;23.276;2023-08-17T12:58:55;2.33;;;2.22;;
6043;SDS011;3050;42.660;23.276;2023-08-17T13:01:24;2.80;;;2.60;;
6043;SDS011;3050;42.660;23.276;2023-08-17T13:04:04;4.25;;;2.50;;
6043;SDS011;3050;42.660;23.276;2023-08-17T13:06:34;2.35;;;2.25;;
6043;SDS011;3050;42.660;23.276;2023-08-17T13:09:06;5.97;;;2.33;;
6043;SDS011;3050;42.660;23.276;2023-08-17T13:11:33;2.50;;;2.38;;
6043;SDS011;3050;42.660;23.276;2023-08-17T13:14:01;2.00;;;1.90;;
6043;SDS011;3050;42.660;23.276;2023-08-17T13:16:27;2.38;;;2.28;;
6043;SDS011;3050;42.660;23.276;2023-08-17T13:18:56;2.05;;;1.95;;
6043;SDS011;3050;42.660;23.276;2023-08-17T13:21:27;2.13;;;2.05;;
6043;SDS011;3050;42.660;23.276;2023-08-17T13:23:55;2.40;;;2.13;;
6043;SDS011;3050;42.660;23.276;2023-08-17T13:26:23;2.58;;;2.42;;
6043;SDS011;3050;42.660;23.276;2023-08-17T13:28:51;2.60;;;2.50;;
6043;SDS011;3050;42.660;23.276;2023-08-17T13:31:18;4.32;;;2.60;;
6043;SDS011;3050;42.660;23.276;2023-08-17T13:33:46;2.80;;;2.33;;
6043;SDS011;3050;42.660;23.276;2023-08-17T13:36:14;2.17;;;2.08;;
6043;SDS011;3050;42.660;23.276;2023-08-17T13:38:45;2.97;;;2.78;;
6043;SDS011;3050;42.660;23.276;2023-08-17T13:41:13;5.50;;;2.38;;
6043;SDS011;3050;42.660;23.276;2023-08-17T13:43:43;2.33;;;2.22;;
6043;SDS011;3050;42.660;23.276;2023-08-17T13:46:11;6.07;;;2.58;;
6043;SDS011;3050;42.660;23.276;2023-08-17T13:48:39;2.20;;;2.00;;
6043;SDS011;3050;42.660;23.276;2023-08-17T13:51:08;1.90;;;1.80;;
6043;SDS011;3050;42.660;23.276;2023-08-17T13:53:36;1.92;;;1.83;;
6043;SDS011;3050;42.660;23.276;2023-08-17T13:56:08;2.35;;;2.20;;
6043;SDS011;3050;42.660;23.276;2023-08-17T13:58:36;2.10;;;2.03;;
6043;SDS011;3050;42.660;23.276;2023-08-17T14:01:07;2.50;;;2.40;;
6043;SDS011;3050;42.660;23.276;2023-08-17T14:03:37;2.45;;;2.35;;
6043;SDS011;3050;42.660;23.276;2023-08-17T14:06:06;3.28;;;2.42;;
6043;SDS011;3050;42.660;23.276;2023-08-17T14:08:34;2.55;;;2.45;;
6043;SDS011;3050;42.660;23.276;2023-08-17T14:11:03;2.80;;;2.63;;
6043;SDS011;3050;42.660;23.276;2023-08-17T14:13:34;4.13;;;2.33;;
6043;SDS011;3050;42.660;23.276;2023-08-17T14:16:02;2.88;;;2.70;;
6043;SDS011;3050;42.660;23.276;2023-08-17T14:18:31;2.28;;;2.03;;
6043;SDS011;3050;42.660;23.276;2023-08-17T14:21:00;2.10;;;2.00;;
6043;SDS011;3050;42.660;23.276;2023-08-17T14:23:31;1.98;;;1.88;;
6043;SDS011;3050;42.660;23.276;2023-08-17T14:26:02;2.53;;;2.25;;
6043;SDS011;3050;42.660;23.276;2023-08-17T14:28:31;2.88;;;2.33;;
6043;SDS011;3050;42.660;23.276;2023-08-17T14:31:02;1.80;;;1.80;;
6043;SDS011;3050;42.660;23.276;2023-08-17T14:33:30;2.47;;;2.00;;
6043;SDS011;3050;42.660;23.276;2023-08-17T14:35:58;1.95;;;1.83;;
6043;SDS011;3050;42.660;23.276;2023-08-17T14:38:27;2.40;;;2.30;;
6043;SDS011;3050;42.660;23.276;2023-08-17T14:40:57;2.97;;;1.77;;
6043;SDS011;3050;42.660;23.276;2023-08-17T14:43:24;2.22;;;2.03;;
6043;SDS011;3050;42.660;23.276;2023-08-17T14:45:53;2.47;;;2.25;;
6043;SDS011;3050;42.660;23.276;2023-08-17T14:48:21;2.10;;;2.00;;
6043;SDS011;3050;42.660;23.276;2023-08-17T14:50:49;3.17;;;2.55;;
6043;SDS011;3050;42.660;23.276;2023-08-17T14:53:19;1.67;;;1.67;;
6043;SDS011;3050;42.660;23.276;2023-08-17T14:55:50;2.03;;;1.92;;
6043;SDS011;3050;42.660;23.276;2023-08-17T14:58:18;2.10;;;2.00;;
6043;SDS011;3050;42.660;23.276;2023-08-17T15:00:52;2.60;;;2.40;;
6043;SDS011;3050;42.660;23.276;2023-08-17T15:03:19;2.30;;;2.20;;
6043;SDS011;3050;42.660;23.276;2023-08-17T15:05:48;2.03;;;1.92;;
6043;SDS011;3050;42.660;23.276;2023-08-17T15:08:16;3.53;;;2.30;;
6043;SDS011;3050;42.660;23.276;2023-08-17T15:10:45;1.98;;;1.88;;
6043;SDS011;3050;42.660;23.276;2023-08-17T15:13:15;2.22;;;2.13;;
6043;SDS011;3050;42.660;23.276;2023-08-17T15:15:44;2.00;;;1.90;;
6043;SDS011;3050;42.660;23.276;2023-08-17T15:18:17;2.50;;;1.80;;
6043;SDS011;3050;42.660;23.276;2023-08-17T15:20:45;1.95;;;1.92;;
6043;SDS011;3050;42.660;23.276;2023-08-17T15:23:20;5.82;;;2.33;;
6043;SDS011;3050;42.660;23.276;2023-08-17T15:25:49;2.10;;;2.00;;